Terminal Aerodrome Forecast
Issued by NWS

Home | Current Version | Previous Version | Text Only | Print | Product List | Glossary On
Versions: 1 2 3 4 5 6 7 8 9 10 11 12 13 14 15 16 17
199
FTUS43 KJKL 092339
TAFSME
TAF
KSME 092339Z 1000/1024 28010KT 6SM -SHSN BR SCT025 OVC035
     FM100600 28010KT P6SM VCSH SCT015 OVC025
     FM102200 28011KT P6SM BKN040=

USA.gov is the U.S. government's official web portal to all federal, state and local government web resources and services.